sensor_id;sensor_type;location;lat;lon;timestamp;temperature;humidity
25328;DHT22;13279;51.300;12.394;2023-07-31T00:01:41;15.60;99.90
25328;DHT22;13279;51.300;12.394;2023-07-31T00:04:09;15.60;99.90
25328;DHT22;13279;51.300;12.394;2023-07-31T00:06:36;15.60;99.90
25328;DHT22;13279;51.300;12.394;2023-07-31T00:09:05;15.70;99.90
25328;DHT22;13279;51.300;12.394;2023-07-31T00:11:33;15.70;99.90
25328;DHT22;13279;51.300;12.394;2023-07-31T00:14:00;15.70;99.90
25328;DHT22;13279;51.300;12.394;2023-07-31T00:16:27;15.80;99.90
25328;DHT22;13279;51.300;12.394;2023-07-31T00:18:55;15.70;99.90
25328;DHT22;13279;51.300;12.394;2023-07-31T00:21:23;15.80;99.90
25328;DHT22;13279;51.300;12.394;2023-07-31T00:23:50;15.80;99.90
25328;DHT22;13279;51.300;12.394;2023-07-31T00:26:19;15.80;99.90
25328;DHT22;13279;51.300;12.394;2023-07-31T00:28:46;15.90;99.90
25328;DHT22;13279;51.300;12.394;2023-07-31T00:31:14;15.90;99.90
25328;DHT22;13279;51.300;12.394;2023-07-31T00:33:41;15.90;99.90
25328;DHT22;13279;51.300;12.394;2023-07-31T00:36:09;16.00;99.90
25328;DHT22;13279;51.300;12.394;2023-07-31T00:38:37;16.00;99.90
25328;DHT22;13279;51.300;12.394;2023-07-31T00:41:06;16.00;99.90
25328;DHT22;13279;51.300;12.394;2023-07-31T00:43:35;16.00;99.90
25328;DHT22;13279;51.300;12.394;2023-07-31T00:46:02;16.00;99.90
25328;DHT22;13279;51.300;12.394;2023-07-31T00:48:30;16.10;99.90
25328;DHT22;13279;51.300;12.394;2023-07-31T00:50:59;16.10;99.90
25328;DHT22;13279;51.300;12.394;2023-07-31T00:53:27;16.10;99.90
25328;DHT22;13279;51.300;12.394;2023-07-31T00:55:55;16.10;99.90
25328;DHT22;13279;51.300;12.394;2023-07-31T00:58:23;16.20;99.90
25328;DHT22;13279;51.300;12.394;2023-07-31T01:00:53;16.20;99.90
25328;DHT22;13279;51.300;12.394;2023-07-31T01:03:20;16.20;99.90
25328;DHT22;13279;51.300;12.394;2023-07-31T01:05:56;16.30;99.90
25328;DHT22;13279;51.300;12.394;2023-07-31T01:08:34;16.30;99.90
25328;DHT22;13279;51.300;12.394;2023-07-31T01:11:09;16.40;99.90
25328;DHT22;13279;51.300;12.394;2023-07-31T01:13:40;16.40;99.90
25328;DHT22;13279;51.300;12.394;2023-07-31T01:16:09;16.50;99.90
25328;DHT22;13279;51.300;12.394;2023-07-31T01:18:36;16.50;99.90
25328;DHT22;13279;51.300;12.394;2023-07-31T01:21:18;16.50;99.90
25328;DHT22;13279;51.300;12.394;2023-07-31T01:24:16;16.50;99.90
25328;DHT22;13279;51.300;12.394;2023-07-31T01:26:53;16.50;99.90
25328;DHT22;13279;51.300;12.394;2023-07-31T01:29:29;16.40;99.90
25328;DHT22;13279;51.300;12.394;2023-07-31T01:32:01;16.30;99.90
25328;DHT22;13279;51.300;12.394;2023-07-31T01:34:30;16.30;99.90
25328;DHT22;13279;51.300;12.394;2023-07-31T01:36:58;16.30;99.90
25328;DHT22;13279;51.300;12.394;2023-07-31T01:39:26;16.40;99.90
25328;DHT22;13279;51.300;12.394;2023-07-31T01:41:55;16.40;99.90
25328;DHT22;13279;51.300;12.394;2023-07-31T01:44:23;16.40;99.90
25328;DHT22;13279;51.300;12.394;2023-07-31T01:46:50;16.40;99.90
25328;DHT22;13279;51.300;12.394;2023-07-31T01:49:18;16.30;99.90
25328;DHT22;13279;51.300;12.394;2023-07-31T01:51:46;16.30;99.90
25328;DHT22;13279;51.300;12.394;2023-07-31T01:54:13;16.30;99.90
25328;DHT22;13279;51.300;12.394;2023-07-31T01:56:41;16.20;99.90
25328;DHT22;13279;51.300;12.394;2023-07-31T01:59:10;16.20;99.90
25328;DHT22;13279;51.300;12.394;2023-07-31T02:01:38;16.20;99.90
25328;DHT22;13279;51.300;12.394;2023-07-31T02:04:06;16.20;99.90
25328;DHT22;13279;51.300;12.394;2023-07-31T02:06:33;16.20;99.90
25328;DHT22;13279;51.300;12.394;2023-07-31T02:09:01;16.30;99.90
25328;DHT22;13279;51.300;12.394;2023-07-31T02:11:31;16.40;99.90
25328;DHT22;13279;51.300;12.394;2023-07-31T02:13:59;16.40;99.90
25328;DHT22;13279;51.300;12.394;2023-07-31T02:16:28;16.40;99.90
25328;DHT22;13279;51.300;12.394;2023-07-31T02:18:55;16.50;99.90
25328;DHT22;13279;51.300;12.394;2023-07-31T02:21:23;16.40;99.90
25328;DHT22;13279;51.300;12.394;2023-07-31T02:23:51;16.40;99.90
25328;DHT22;13279;51.300;12.394;2023-07-31T02:26:19;16.40;99.90
25328;DHT22;13279;51.300;12.394;2023-07-31T02:28:45;16.40;99.90
25328;DHT22;13279;51.300;12.394;2023-07-31T02:31:13;16.40;99.90
25328;DHT22;13279;51.300;12.394;2023-07-31T02:33:41;16.40;99.90
25328;DHT22;13279;51.300;12.394;2023-07-31T02:36:10;16.30;99.90
25328;DHT22;13279;51.300;12.394;2023-07-31T02:38:37;16.30;99.90
25328;DHT22;13279;51.300;12.394;2023-07-31T02:41:06;16.30;99.90
25328;DHT22;13279;51.300;12.394;2023-07-31T02:43:33;16.30;99.90
25328;DHT22;13279;51.300;12.394;2023-07-31T02:46:01;16.30;99.90
25328;DHT22;13279;51.300;12.394;2023-07-31T02:48:28;16.30;99.90
25328;DHT22;13279;51.300;12.394;2023-07-31T02:50:57;16.30;99.90
25328;DHT22;13279;51.300;12.394;2023-07-31T02:53:25;16.30;99.90
25328;DHT22;13279;51.300;12.394;2023-07-31T02:55:52;16.30;99.90
25328;DHT22;13279;51.300;12.394;2023-07-31T02:58:19;16.30;99.90
25328;DHT22;13279;51.300;12.394;2023-07-31T03:00:47;16.20;99.90
25328;DHT22;13279;51.300;12.394;2023-07-31T03:03:14;16.20;99.90
25328;DHT22;13279;51.300;12.394;2023-07-31T03:05:42;16.20;99.90
25328;DHT22;13279;51.300;12.394;2023-07-31T03:08:10;16.20;99.90
25328;DHT22;13279;51.300;12.394;2023-07-31T03:10:38;16.20;99.90
25328;DHT22;13279;51.300;12.394;2023-07-31T03:13:05;16.20;99.90
25328;DHT22;13279;51.300;12.394;2023-07-31T03:15:33;16.20;99.90
25328;DHT22;13279;51.300;12.394;2023-07-31T03:18:00;16.20;99.90
25328;DHT22;13279;51.300;12.394;2023-07-31T03:20:28;16.20;99.90
25328;DHT22;13279;51.300;12.394;2023-07-31T03:22:55;16.20;99.90
25328;DHT22;13279;51.300;12.394;2023-07-31T03:25:25;16.10;99.90
25328;DHT22;13279;51.300;12.394;2023-07-31T03:27:52;16.10;99.90
25328;DHT22;13279;51.300;12.394;2023-07-31T03:30:20;16.00;99.90
25328;DHT22;13279;51.300;12.394;2023-07-31T03:32:47;16.00;99.90
25328;DHT22;13279;51.300;12.394;2023-07-31T03:35:14;16.00;99.90
25328;DHT22;13279;51.300;12.394;2023-07-31T03:37:42;15.90;99.90
25328;DHT22;13279;51.300;12.394;2023-07-31T03:40:11;15.90;99.90
25328;DHT22;13279;51.300;12.394;2023-07-31T03:42:39;15.90;99.90
25328;DHT22;13279;51.300;12.394;2023-07-31T03:45:08;15.90;99.90
25328;DHT22;13279;51.300;12.394;2023-07-31T03:47:35;15.90;99.90
25328;DHT22;13279;51.300;12.394;2023-07-31T03:50:03;15.90;99.90
25328;DHT22;13279;51.300;12.394;2023-07-31T03:52:31;15.90;99.90
25328;DHT22;13279;51.300;12.394;2023-07-31T03:55:01;15.90;99.90
25328;DHT22;13279;51.300;12.394;2023-07-31T03:57:28;15.90;99.90
25328;DHT22;13279;51.300;12.394;2023-07-31T03:59:56;15.90;99.90
25328;DHT22;13279;51.300;12.394;2023-07-31T04:02:24;15.90;99.90
25328;DHT22;13279;51.300;12.394;2023-07-31T04:04:51;15.90;99.90
25328;DHT22;13279;51.300;12.394;2023-07-31T04:07:18;15.90;99.90
25328;DHT22;13279;51.300;12.394;2023-07-31T04:09:46;15.90;99.90
25328;DHT22;13279;51.300;12.394;2023-07-31T04:12:13;15.90;99.90
25328;DHT22;13279;51.300;12.394;2023-07-31T04:14:41;15.90;99.90
25328;DHT22;13279;51.300;12.394;2023-07-31T04:17:09;15.90;99.90
25328;DHT22;13279;51.300;12.394;2023-07-31T04:19:37;15.90;99.90
25328;DHT22;13279;51.300;12.394;2023-07-31T04:22:04;15.90;99.90
25328;DHT22;13279;51.300;12.394;2023-07-31T04:24:32;15.90;99.90
25328;DHT22;13279;51.300;12.394;2023-07-31T04:26:59;16.00;99.90
25328;DHT22;13279;51.300;12.394;2023-07-31T04:29:26;16.00;99.90
25328;DHT22;13279;51.300;12.394;2023-07-31T04:31:54;16.00;99.90
25328;DHT22;13279;51.300;12.394;2023-07-31T04:34:23;16.00;99.90
25328;DHT22;13279;51.300;12.394;2023-07-31T04:36:50;15.90;99.90
25328;DHT22;13279;51.300;12.394;2023-07-31T04:39:17;15.90;99.90
25328;DHT22;13279;51.300;12.394;2023-07-31T04:41:45;15.90;99.90
25328;DHT22;13279;51.300;12.394;2023-07-31T04:44:12;15.90;99.90
25328;DHT22;13279;51.300;12.394;2023-07-31T04:46:40;15.80;99.90
25328;DHT22;13279;51.300;12.394;2023-07-31T04:49:07;15.80;99.90
25328;DHT22;13279;51.300;12.394;2023-07-31T04:51:36;15.80;99.90
25328;DHT22;13279;51.300;12.394;2023-07-31T04:54:03;15.70;99.90
25328;DHT22;13279;51.300;12.394;2023-07-31T04:56:31;15.70;99.90
25328;DHT22;13279;51.300;12.394;2023-07-31T04:58:58;15.60;99.90
25328;DHT22;13279;51.300;12.394;2023-07-31T05:01:25;15.50;99.90
25328;DHT22;13279;51.300;12.394;2023-07-31T05:03:53;15.50;99.90
25328;DHT22;13279;51.300;12.394;2023-07-31T05:06:20;15.40;99.90
25328;DHT22;13279;51.300;12.394;2023-07-31T05:08:49;15.40;99.90
25328;DHT22;13279;51.300;12.394;2023-07-31T05:11:17;15.30;99.90
25328;DHT22;13279;51.300;12.394;2023-07-31T05:13:44;15.30;99.90
25328;DHT22;13279;51.300;12.394;2023-07-31T05:16:11;15.20;99.90
25328;DHT22;13279;51.300;12.394;2023-07-31T05:18:39;15.10;99.90
25328;DHT22;13279;51.300;12.394;2023-07-31T05:21:06;15.00;99.90
25328;DHT22;13279;51.300;12.394;2023-07-31T05:23:33;15.00;99.90
25328;DHT22;13279;51.300;12.394;2023-07-31T05:26:04;15.00;99.90
25328;DHT22;13279;51.300;12.394;2023-07-31T05:28:33;14.90;99.90
25328;DHT22;13279;51.300;12.394;2023-07-31T05:31:00;14.90;99.90
25328;DHT22;13279;51.300;12.394;2023-07-31T05:33:28;14.80;99.90
25328;DHT22;13279;51.300;12.394;2023-07-31T05:35:55;14.80;99.90
25328;DHT22;13279;51.300;12.394;2023-07-31T05:38:23;14.90;99.90
25328;DHT22;13279;51.300;12.394;2023-07-31T05:40:51;14.90;99.90
25328;DHT22;13279;51.300;12.394;2023-07-31T05:43:19;14.90;99.90
25328;DHT22;13279;51.300;12.394;2023-07-31T05:45:47;14.90;99.90
25328;DHT22;13279;51.300;12.394;2023-07-31T05:48:14;14.90;99.90
25328;DHT22;13279;51.300;12.394;2023-07-31T05:50:43;14.90;99.90
25328;DHT22;13279;51.300;12.394;2023-07-31T05:53:10;14.90;99.90
25328;DHT22;13279;51.300;12.394;2023-07-31T05:55:37;15.00;99.90
25328;DHT22;13279;51.300;12.394;2023-07-31T05:58:05;15.00;99.90
25328;DHT22;13279;51.300;12.394;2023-07-31T06:00:33;15.00;99.90
25328;DHT22;13279;51.300;12.394;2023-07-31T06:03:01;15.10;99.90
25328;DHT22;13279;51.300;12.394;2023-07-31T06:05:28;15.10;99.90
25328;DHT22;13279;51.300;12.394;2023-07-31T06:07:56;15.10;99.90
25328;DHT22;13279;51.300;12.394;2023-07-31T06:10:23;15.20;99.90
25328;DHT22;13279;51.300;12.394;2023-07-31T06:12:51;15.30;99.90
25328;DHT22;13279;51.300;12.394;2023-07-31T06:15:19;15.30;99.90
25328;DHT22;13279;51.300;12.394;2023-07-31T06:17:49;15.30;99.90
25328;DHT22;13279;51.300;12.394;2023-07-31T06:20:17;15.30;99.90
25328;DHT22;13279;51.300;12.394;2023-07-31T06:22:44;15.30;99.90
25328;DHT22;13279;51.300;12.394;2023-07-31T06:25:12;15.40;99.90
25328;DHT22;13279;51.300;12.394;2023-07-31T06:27:39;15.50;99.90
25328;DHT22;13279;51.300;12.394;2023-07-31T06:30:07;15.50;99.90
25328;DHT22;13279;51.300;12.394;2023-07-31T06:32:35;15.60;99.90
25328;DHT22;13279;51.300;12.394;2023-07-31T06:35:04;15.60;99.90
25328;DHT22;13279;51.300;12.394;2023-07-31T06:37:32;15.60;99.90
25328;DHT22;13279;51.300;12.394;2023-07-31T06:39:59;15.60;99.90
25328;DHT22;13279;51.300;12.394;2023-07-31T06:42:27;15.60;99.90
25328;DHT22;13279;51.300;12.394;2023-07-31T06:44:54;15.60;99.90
25328;DHT22;13279;51.300;12.394;2023-07-31T06:47:21;15.60;99.90
25328;DHT22;13279;51.300;12.394;2023-07-31T06:49:49;15.70;99.90
25328;DHT22;13279;51.300;12.394;2023-07-31T06:52:17;15.70;99.90
25328;DHT22;13279;51.300;12.394;2023-07-31T06:54:56;15.70;99.90
25328;DHT22;13279;51.300;12.394;2023-07-31T06:57:27;15.80;99.90
25328;DHT22;13279;51.300;12.394;2023-07-31T06:59:54;15.80;99.90
25328;DHT22;13279;51.300;12.394;2023-07-31T07:02:22;15.80;99.90
25328;DHT22;13279;51.300;12.394;2023-07-31T07:04:49;15.90;99.90
25328;DHT22;13279;51.300;12.394;2023-07-31T07:07:19;15.90;99.90
25328;DHT22;13279;51.300;12.394;2023-07-31T07:09:46;15.90;99.90
25328;DHT22;13279;51.300;12.394;2023-07-31T07:12:14;15.90;99.90
25328;DHT22;13279;51.300;12.394;2023-07-31T07:14:41;16.00;99.90
25328;DHT22;13279;51.300;12.394;2023-07-31T07:17:09;16.00;99.90
25328;DHT22;13279;51.300;12.394;2023-07-31T07:19:36;16.00;99.90
25328;DHT22;13279;51.300;12.394;2023-07-31T07:22:04;16.00;99.90
25328;DHT22;13279;51.300;12.394;2023-07-31T07:24:33;16.10;99.90
25328;DHT22;13279;51.300;12.394;2023-07-31T07:27:00;16.20;99.90
25328;DHT22;13279;51.300;12.394;2023-07-31T07:29:28;16.20;99.90
25328;DHT22;13279;51.300;12.394;2023-07-31T07:31:55;16.30;99.90
25328;DHT22;13279;51.300;12.394;2023-07-31T07:34:23;16.30;99.90
25328;DHT22;13279;51.300;12.394;2023-07-31T07:36:51;16.40;99.90
25328;DHT22;13279;51.300;12.394;2023-07-31T07:39:18;16.50;99.90
25328;DHT22;13279;51.300;12.394;2023-07-31T07:41:48;16.50;99.90
25328;DHT22;13279;51.300;12.394;2023-07-31T07:44:15;16.60;99.90
25328;DHT22;13279;51.300;12.394;2023-07-31T07:46:43;16.60;99.90
25328;DHT22;13279;51.300;12.394;2023-07-31T07:49:10;16.70;99.90
25328;DHT22;13279;51.300;12.394;2023-07-31T07:51:38;16.90;99.90
25328;DHT22;13279;51.300;12.394;2023-07-31T07:54:05;17.00;99.90
25328;DHT22;13279;51.300;12.394;2023-07-31T07:56:33;17.20;99.90
25328;DHT22;13279;51.300;12.394;2023-07-31T07:59:03;17.30;99.90
25328;DHT22;13279;51.300;12.394;2023-07-31T08:01:30;17.40;99.90
25328;DHT22;13279;51.300;12.394;2023-07-31T08:03:58;17.40;99.90
25328;DHT22;13279;51.300;12.394;2023-07-31T08:06:26;17.50;99.90
25328;DHT22;13279;51.300;12.394;2023-07-31T08:08:53;17.60;99.90
25328;DHT22;13279;51.300;12.394;2023-07-31T08:11:21;17.60;99.90
25328;DHT22;13279;51.300;12.394;2023-07-31T08:13:49;17.60;99.90
25328;DHT22;13279;51.300;12.394;2023-07-31T08:16:18;17.70;99.90
25328;DHT22;13279;51.300;12.394;2023-07-31T08:18:45;17.80;99.90
25328;DHT22;13279;51.300;12.394;2023-07-31T08:21:13;17.80;99.90
25328;DHT22;13279;51.300;12.394;2023-07-31T08:23:40;17.80;99.90
25328;DHT22;13279;51.300;12.394;2023-07-31T08:26:08;17.80;99.90
25328;DHT22;13279;51.300;12.394;2023-07-31T08:28:41;17.80;99.90
25328;DHT22;13279;51.300;12.394;2023-07-31T08:31:08;17.90;99.90
25328;DHT22;13279;51.300;12.394;2023-07-31T08:33:37;18.00;99.90
25328;DHT22;13279;51.300;12.394;2023-07-31T08:36:06;18.10;99.90
25328;DHT22;13279;51.300;12.394;2023-07-31T08:38:33;18.30;99.90
25328;DHT22;13279;51.300;12.394;2023-07-31T08:41:03;18.40;99.90
25328;DHT22;13279;51.300;12.394;2023-07-31T08:43:31;18.40;99.90
25328;DHT22;13279;51.300;12.394;2023-07-31T08:46:00;18.50;99.90
25328;DHT22;13279;51.300;12.394;2023-07-31T08:48:29;18.60;99.90
25328;DHT22;13279;51.300;12.394;2023-07-31T08:50:59;18.70;99.90
25328;DHT22;13279;51.300;12.394;2023-07-31T08:53:26;18.70;99.90
25328;DHT22;13279;51.300;12.394;2023-07-31T08:55:54;18.80;99.90
25328;DHT22;13279;51.300;12.394;2023-07-31T08:58:22;18.80;99.90
25328;DHT22;13279;51.300;12.394;2023-07-31T09:00:51;18.80;99.90
25328;DHT22;13279;51.300;12.394;2023-07-31T09:03:21;18.80;99.90
25328;DHT22;13279;51.300;12.394;2023-07-31T09:05:50;18.80;99.90
25328;DHT22;13279;51.300;12.394;2023-07-31T09:08:21;18.80;99.90
25328;DHT22;13279;51.300;12.394;2023-07-31T09:10:49;18.70;99.90
25328;DHT22;13279;51.300;12.394;2023-07-31T09:13:17;18.70;99.90
25328;DHT22;13279;51.300;12.394;2023-07-31T09:15:45;18.70;99.90
25328;DHT22;13279;51.300;12.394;2023-07-31T09:18:12;18.70;99.90
25328;DHT22;13279;51.300;12.394;2023-07-31T09:20:43;18.80;99.90
25328;DHT22;13279;51.300;12.394;2023-07-31T09:23:11;18.70;99.90
25328;DHT22;13279;51.300;12.394;2023-07-31T09:25:44;18.60;99.90
25328;DHT22;13279;51.300;12.394;2023-07-31T09:28:11;18.50;99.90
25328;DHT22;13279;51.300;12.394;2023-07-31T09:30:46;18.40;99.90
25328;DHT22;13279;51.300;12.394;2023-07-31T09:33:15;18.50;99.90
25328;DHT22;13279;51.300;12.394;2023-07-31T09:35:43;18.60;99.90
25328;DHT22;13279;51.300;12.394;2023-07-31T09:38:12;18.70;99.90
25328;DHT22;13279;51.300;12.394;2023-07-31T09:40:43;18.70;99.90
25328;DHT22;13279;51.300;12.394;2023-07-31T09:43:12;18.80;99.90
25328;DHT22;13279;51.300;12.394;2023-07-31T09:45:40;18.80;99.90
25328;DHT22;13279;51.300;12.394;2023-07-31T09:48:09;18.80;99.90
25328;DHT22;13279;51.300;12.394;2023-07-31T09:50:37;18.80;99.90
25328;DHT22;13279;51.300;12.394;2023-07-31T09:53:05;18.80;99.90
25328;DHT22;13279;51.300;12.394;2023-07-31T09:55:33;18.80;99.90
25328;DHT22;13279;51.300;12.394;2023-07-31T09:58:05;18.90;99.90
25328;DHT22;13279;51.300;12.394;2023-07-31T10:00:33;19.00;99.90
25328;DHT22;13279;51.300;12.394;2023-07-31T10:03:01;19.00;99.90
25328;DHT22;13279;51.300;12.394;2023-07-31T10:05:34;19.10;99.90
25328;DHT22;13279;51.300;12.394;2023-07-31T10:08:03;19.10;99.90
25328;DHT22;13279;51.300;12.394;2023-07-31T10:10:31;18.90;99.90
25328;DHT22;13279;51.300;12.394;2023-07-31T10:13:00;18.70;99.90
25328;DHT22;13279;51.300;12.394;2023-07-31T10:15:29;18.70;99.90
25328;DHT22;13279;51.300;12.394;2023-07-31T10:17:58;18.90;99.90
25328;DHT22;13279;51.300;12.394;2023-07-31T10:20:26;19.10;99.90
25328;DHT22;13279;51.300;12.394;2023-07-31T10:22:55;19.50;99.90
25328;DHT22;13279;51.300;12.394;2023-07-31T10:25:22;19.90;99.90
25328;DHT22;13279;51.300;12.394;2023-07-31T10:27:52;20.10;99.90
25328;DHT22;13279;51.300;12.394;2023-07-31T10:30:24;20.10;99.90
25328;DHT22;13279;51.300;12.394;2023-07-31T10:32:53;20.00;99.90
25328;DHT22;13279;51.300;12.394;2023-07-31T10:35:21;19.90;99.90
25328;DHT22;13279;51.300;12.394;2023-07-31T10:37:49;20.00;99.90
25328;DHT22;13279;51.300;12.394;2023-07-31T10:40:18;20.00;99.90
25328;DHT22;13279;51.300;12.394;2023-07-31T10:42:48;19.80;5.80
25328;DHT22;13279;51.300;12.394;2023-07-31T10:45:25;19.80;14.70
25328;DHT22;13279;51.300;12.394;2023-07-31T10:48:00;19.70;10.00
25328;DHT22;13279;51.300;12.394;2023-07-31T10:50:28;19.60;31.50
25328;DHT22;13279;51.300;12.394;2023-07-31T10:52:59;19.60;47.40
25328;DHT22;13279;51.300;12.394;2023-07-31T10:55:31;19.70;38.60
25328;DHT22;13279;51.300;12.394;2023-07-31T10:58:06;19.80;19.30
25328;DHT22;13279;51.300;12.394;2023-07-31T11:00:36;20.00;1.00
25328;DHT22;13279;51.300;12.394;2023-07-31T11:03:06;20.00;1.00
25328;DHT22;13279;51.300;12.394;2023-07-31T11:05:42;20.30;1.00
25328;DHT22;13279;51.300;12.394;2023-07-31T11:08:13;20.50;1.00
25328;DHT22;13279;51.300;12.394;2023-07-31T11:10:42;20.60;1.00
25328;DHT22;13279;51.300;12.394;2023-07-31T11:13:09;20.80;1.00
25328;DHT22;13279;51.300;12.394;2023-07-31T11:15:36;20.90;99.90
25328;DHT22;13279;51.300;12.394;2023-07-31T11:18:05;20.90;99.90
25328;DHT22;13279;51.300;12.394;2023-07-31T11:20:35;20.80;99.90
25328;DHT22;13279;51.300;12.394;2023-07-31T11:23:05;20.80;99.90
25328;DHT22;13279;51.300;12.394;2023-07-31T11:25:33;20.80;99.90
25328;DHT22;13279;51.300;12.394;2023-07-31T11:28:03;21.20;99.90
25328;DHT22;13279;51.300;12.394;2023-07-31T11:30:31;21.50;99.90
25328;DHT22;13279;51.300;12.394;2023-07-31T11:33:01;21.60;99.90
25328;DHT22;13279;51.300;12.394;2023-07-31T11:35:32;21.50;99.90
25328;DHT22;13279;51.300;12.394;2023-07-31T11:38:00;21.70;99.90
25328;DHT22;13279;51.300;12.394;2023-07-31T11:40:28;21.70;99.90
25328;DHT22;13279;51.300;12.394;2023-07-31T11:42:57;21.60;99.90
25328;DHT22;13279;51.300;12.394;2023-07-31T11:45:25;21.50;99.90
25328;DHT22;13279;51.300;12.394;2023-07-31T11:47:55;21.40;99.90
25328;DHT22;13279;51.300;12.394;2023-07-31T11:50:23;21.10;99.90
25328;DHT22;13279;51.300;12.394;2023-07-31T11:52:58;21.00;99.90
25328;DHT22;13279;51.300;12.394;2023-07-31T11:55:26;21.00;99.90
25328;DHT22;13279;51.300;12.394;2023-07-31T11:57:56;21.00;99.90
25328;DHT22;13279;51.300;12.394;2023-07-31T12:00:24;20.80;99.90
25328;DHT22;13279;51.300;12.394;2023-07-31T12:02:53;20.60;99.90
25328;DHT22;13279;51.300;12.394;2023-07-31T12:05:22;20.50;1.00
25328;DHT22;13279;51.300;12.394;2023-07-31T12:07:50;20.30;99.90
25328;DHT22;13279;51.300;12.394;2023-07-31T12:10:29;20.40;99.90
25328;DHT22;13279;51.300;12.394;2023-07-31T12:12:59;20.50;99.90
25328;DHT22;13279;51.300;12.394;2023-07-31T12:15:35;20.70;99.90
25328;DHT22;13279;51.300;12.394;2023-07-31T12:18:05;20.70;99.90
25328;DHT22;13279;51.300;12.394;2023-07-31T12:20:33;20.70;99.90
25328;DHT22;13279;51.300;12.394;2023-07-31T12:23:01;20.70;99.90
25328;DHT22;13279;51.300;12.394;2023-07-31T12:25:32;20.80;99.90
25328;DHT22;13279;51.300;12.394;2023-07-31T12:28:05;20.80;99.90
25328;DHT22;13279;51.300;12.394;2023-07-31T12:30:34;20.90;99.90
25328;DHT22;13279;51.300;12.394;2023-07-31T12:33:05;21.10;99.90
25328;DHT22;13279;51.300;12.394;2023-07-31T12:35:37;21.10;99.90
25328;DHT22;13279;51.300;12.394;2023-07-31T12:38:05;21.20;99.90
25328;DHT22;13279;51.300;12.394;2023-07-31T12:40:37;21.40;99.90
25328;DHT22;13279;51.300;12.394;2023-07-31T12:43:05;21.60;99.90
25328;DHT22;13279;51.300;12.394;2023-07-31T12:45:33;21.60;99.90
25328;DHT22;13279;51.300;12.394;2023-07-31T12:48:01;21.60;99.90
25328;DHT22;13279;51.300;12.394;2023-07-31T12:50:29;21.50;99.90
25328;DHT22;13279;51.300;12.394;2023-07-31T12:52:57;21.50;99.90
25328;DHT22;13279;51.300;12.394;2023-07-31T12:55:25;21.60;99.90
25328;DHT22;13279;51.300;12.394;2023-07-31T12:57:54;21.70;99.90
25328;DHT22;13279;51.300;12.394;2023-07-31T13:00:21;21.70;99.90
25328;DHT22;13279;51.300;12.394;2023-07-31T13:02:49;21.90;99.90
25328;DHT22;13279;51.300;12.394;2023-07-31T13:05:16;22.40;99.90
25328;DHT22;13279;51.300;12.394;2023-07-31T13:07:46;22.80;99.90
25328;DHT22;13279;51.300;12.394;2023-07-31T13:10:13;23.20;99.90
25328;DHT22;13279;51.300;12.394;2023-07-31T13:12:41;23.40;99.90
25328;DHT22;13279;51.300;12.394;2023-07-31T13:15:10;23.10;99.90
25328;DHT22;13279;51.300;12.394;2023-07-31T13:17:37;23.00;99.90
25328;DHT22;13279;51.300;12.394;2023-07-31T13:20:05;23.10;99.90
25328;DHT22;13279;51.300;12.394;2023-07-31T13:22:33;23.10;99.90
25328;DHT22;13279;51.300;12.394;2023-07-31T13:25:01;23.00;99.90
25328;DHT22;13279;51.300;12.394;2023-07-31T13:27:29;23.00;99.90
25328;DHT22;13279;51.300;12.394;2023-07-31T13:29:56;23.40;99.90
25328;DHT22;13279;51.300;12.394;2023-07-31T13:32:25;23.50;99.90
25328;DHT22;13279;51.300;12.394;2023-07-31T13:34:53;23.50;99.90
25328;DHT22;13279;51.300;12.394;2023-07-31T13:37:21;23.40;99.90
25328;DHT22;13279;51.300;12.394;2023-07-31T13:39:48;23.70;99.90
25328;DHT22;13279;51.300;12.394;2023-07-31T13:42:15;23.50;99.90
25328;DHT22;13279;51.300;12.394;2023-07-31T13:44:43;23.70;99.90
25328;DHT22;13279;51.300;12.394;2023-07-31T13:47:11;23.80;99.90
25328;DHT22;13279;51.300;12.394;2023-07-31T13:49:41;24.10;99.90
25328;DHT22;13279;51.300;12.394;2023-07-31T13:52:09;23.80;99.90
25328;DHT22;13279;51.300;12.394;2023-07-31T13:54:37;23.50;99.90
25328;DHT22;13279;51.300;12.394;2023-07-31T13:57:05;22.90;99.90
25328;DHT22;13279;51.300;12.394;2023-07-31T13:59:33;22.70;99.90
25328;DHT22;13279;51.300;12.394;2023-07-31T14:02:01;22.80;99.90
25328;DHT22;13279;51.300;12.394;2023-07-31T14:04:29;22.80;99.90
25328;DHT22;13279;51.300;12.394;2023-07-31T14:06:58;22.60;99.90
25328;DHT22;13279;51.300;12.394;2023-07-31T14:09:26;22.60;99.90
25328;DHT22;13279;51.300;12.394;2023-07-31T14:11:54;22.50;99.90
25328;DHT22;13279;51.300;12.394;2023-07-31T14:14:22;22.10;99.90
25328;DHT22;13279;51.300;12.394;2023-07-31T14:16:50;22.00;99.90
25328;DHT22;13279;51.300;12.394;2023-07-31T14:19:17;21.90;99.90
25328;DHT22;13279;51.300;12.394;2023-07-31T14:21:44;21.90;99.90
25328;DHT22;13279;51.300;12.394;2023-07-31T14:24:13;21.80;99.90
25328;DHT22;13279;51.300;12.394;2023-07-31T14:26:41;21.80;99.90
25328;DHT22;13279;51.300;12.394;2023-07-31T14:29:08;21.80;99.90
25328;DHT22;13279;51.300;12.394;2023-07-31T14:31:36;21.90;99.90
25328;DHT22;13279;51.300;12.394;2023-07-31T14:34:03;21.80;99.90
25328;DHT22;13279;51.300;12.394;2023-07-31T14:36:30;21.80;99.90
25328;DHT22;13279;51.300;12.394;2023-07-31T14:38:58;21.80;99.90
25328;DHT22;13279;51.300;12.394;2023-07-31T14:41:27;21.90;99.90
25328;DHT22;13279;51.300;12.394;2023-07-31T14:43:55;22.10;99.90
25328;DHT22;13279;51.300;12.394;2023-07-31T14:46:22;22.10;99.90
25328;DHT22;13279;51.300;12.394;2023-07-31T14:48:50;21.90;99.90
25328;DHT22;13279;51.300;12.394;2023-07-31T14:51:18;21.90;99.90
25328;DHT22;13279;51.300;12.394;2023-07-31T14:53:45;21.80;99.90
25328;DHT22;13279;51.300;12.394;2023-07-31T14:56:13;21.80;99.90
25328;DHT22;13279;51.300;12.394;2023-07-31T14:58:42;21.80;99.90
25328;DHT22;13279;51.300;12.394;2023-07-31T15:01:10;21.70;99.90
25328;DHT22;13279;51.300;12.394;2023-07-31T15:03:37;21.70;99.90
25328;DHT22;13279;51.300;12.394;2023-07-31T15:06:05;21.70;99.90
25328;DHT22;13279;51.300;12.394;2023-07-31T15:08:33;21.70;99.90
25328;DHT22;13279;51.300;12.394;2023-07-31T15:11:02;21.60;99.90
25328;DHT22;13279;51.300;12.394;2023-07-31T15:13:29;21.50;99.90
25328;DHT22;13279;51.300;12.394;2023-07-31T15:15:58;21.60;99.90
25328;DHT22;13279;51.300;12.394;2023-07-31T15:18:26;21.60;99.90
25328;DHT22;13279;51.300;12.394;2023-07-31T15:20:54;21.60;99.90
25328;DHT22;13279;51.300;12.394;2023-07-31T15:23:22;21.60;99.90
25328;DHT22;13279;51.300;12.394;2023-07-31T15:25:49;21.70;99.90